sensor_id;sensor_type;location;lat;lon;timestamp;P1;durP1;ratioP1;P2;durP2;ratioP2
16506;SDS011;8366;51.020;7.642;2023-12-20T00:01:04;6.67;;;5.33;;
16506;SDS011;8366;51.020;7.642;2023-12-20T00:03:30;6.07;;;5.30;;
16506;SDS011;8366;51.020;7.642;2023-12-20T00:05:57;6.73;;;5.50;;
16506;SDS011;8366;51.020;7.642;2023-12-20T00:08:23;6.60;;;5.50;;
16506;SDS011;8366;51.020;7.642;2023-12-20T00:10:50;6.53;;;5.60;;
16506;SDS011;8366;51.020;7.642;2023-12-20T00:13:17;6.50;;;5.37;;
16506;SDS011;8366;51.020;7.642;2023-12-20T00:15:44;5.93;;;5.03;;
16506;SDS011;8366;51.020;7.642;2023-12-20T00:18:11;5.97;;;5.27;;
16506;SDS011;8366;51.020;7.642;2023-12-20T00:20:37;6.87;;;5.43;;
16506;SDS011;8366;51.020;7.642;2023-12-20T00:23:04;5.83;;;5.17;;
16506;SDS011;8366;51.020;7.642;2023-12-20T00:25:30;5.93;;;4.80;;
16506;SDS011;8366;51.020;7.642;2023-12-20T00:27:58;6.20;;;4.77;;
16506;SDS011;8366;51.020;7.642;2023-12-20T00:30:26;6.73;;;5.20;;
16506;SDS011;8366;51.020;7.642;2023-12-20T00:32:52;8.80;;;5.27;;
16506;SDS011;8366;51.020;7.642;2023-12-20T00:35:19;5.97;;;4.53;;
16506;SDS011;8366;51.020;7.642;2023-12-20T00:37:45;5.30;;;4.20;;
16506;SDS011;8366;51.020;7.642;2023-12-20T00:40:12;5.00;;;4.10;;
16506;SDS011;8366;51.020;7.642;2023-12-20T00:42:38;4.80;;;3.67;;
16506;SDS011;8366;51.020;7.642;2023-12-20T00:45:05;4.90;;;4.03;;
16506;SDS011;8366;51.020;7.642;2023-12-20T00:47:33;4.03;;;3.60;;
16506;SDS011;8366;51.020;7.642;2023-12-20T00:50:00;4.17;;;3.50;;
16506;SDS011;8366;51.020;7.642;2023-12-20T00:52:26;3.50;;;3.20;;
16506;SDS011;8366;51.020;7.642;2023-12-20T00:54:53;3.47;;;3.17;;
16506;SDS011;8366;51.020;7.642;2023-12-20T00:57:19;3.00;;;2.70;;
16506;SDS011;8366;51.020;7.642;2023-12-20T00:59:46;2.87;;;2.60;;
16506;SDS011;8366;51.020;7.642;2023-12-20T01:02:12;3.30;;;2.60;;
16506;SDS011;8366;51.020;7.642;2023-12-20T01:04:40;2.23;;;2.03;;
16506;SDS011;8366;51.020;7.642;2023-12-20T01:07:07;4.17;;;2.70;;
16506;SDS011;8366;51.020;7.642;2023-12-20T01:09:34;2.57;;;2.37;;
16506;SDS011;8366;51.020;7.642;2023-12-20T01:12:00;2.07;;;1.97;;
16506;SDS011;8366;51.020;7.642;2023-12-20T01:14:27;2.30;;;2.07;;
16506;SDS011;8366;51.020;7.642;2023-12-20T01:16:53;2.30;;;1.90;;
16506;SDS011;8366;51.020;7.642;2023-12-20T01:19:19;1.97;;;1.77;;
16506;SDS011;8366;51.020;7.642;2023-12-20T01:21:47;2.40;;;1.93;;
16506;SDS011;8366;51.020;7.642;2023-12-20T01:24:14;1.37;;;1.27;;
16506;SDS011;8366;51.020;7.642;2023-12-20T01:26:40;1.73;;;1.60;;
16506;SDS011;8366;51.020;7.642;2023-12-20T01:29:07;3.53;;;1.90;;
16506;SDS011;8366;51.020;7.642;2023-12-20T01:31:34;2.20;;;1.60;;
16506;SDS011;8366;51.020;7.642;2023-12-20T01:34:00;2.87;;;1.90;;
16506;SDS011;8366;51.020;7.642;2023-12-20T01:36:27;3.97;;;2.13;;
16506;SDS011;8366;51.020;7.642;2023-12-20T01:38:55;3.80;;;2.40;;
16506;SDS011;8366;51.020;7.642;2023-12-20T01:41:22;3.40;;;2.50;;
16506;SDS011;8366;51.020;7.642;2023-12-20T01:43:48;3.30;;;2.70;;
16506;SDS011;8366;51.020;7.642;2023-12-20T01:46:15;4.73;;;2.90;;
16506;SDS011;8366;51.020;7.642;2023-12-20T01:48:41;3.60;;;2.37;;
16506;SDS011;8366;51.020;7.642;2023-12-20T01:51:08;3.70;;;2.50;;
16506;SDS011;8366;51.020;7.642;2023-12-20T01:53:35;6.10;;;3.07;;
16506;SDS011;8366;51.020;7.642;2023-12-20T01:56:03;8.40;;;4.03;;
16506;SDS011;8366;51.020;7.642;2023-12-20T01:58:30;5.20;;;3.13;;
16506;SDS011;8366;51.020;7.642;2023-12-20T02:00:57;6.83;;;3.17;;
16506;SDS011;8366;51.020;7.642;2023-12-20T02:03:23;5.47;;;3.10;;
16506;SDS011;8366;51.020;7.642;2023-12-20T02:05:50;6.13;;;3.23;;
16506;SDS011;8366;51.020;7.642;2023-12-20T02:08:17;5.87;;;3.40;;
16506;SDS011;8366;51.020;7.642;2023-12-20T02:10:43;4.13;;;3.17;;
16506;SDS011;8366;51.020;7.642;2023-12-20T02:13:11;10.20;;;3.40;;
16506;SDS011;8366;51.020;7.642;2023-12-20T02:15:38;6.00;;;3.40;;
16506;SDS011;8366;51.020;7.642;2023-12-20T02:18:07;10.10;;;4.00;;
16506;SDS011;8366;51.020;7.642;2023-12-20T02:20:33;6.20;;;2.90;;
16506;SDS011;8366;51.020;7.642;2023-12-20T02:23:01;6.57;;;2.93;;
16506;SDS011;8366;51.020;7.642;2023-12-20T02:25:28;4.83;;;2.90;;
16506;SDS011;8366;51.020;7.642;2023-12-20T02:27:54;6.27;;;2.90;;
16506;SDS011;8366;51.020;7.642;2023-12-20T02:30:21;6.03;;;2.43;;
16506;SDS011;8366;51.020;7.642;2023-12-20T02:32:47;9.87;;;2.97;;
16506;SDS011;8366;51.020;7.642;2023-12-20T02:35:14;6.07;;;3.00;;
16506;SDS011;8366;51.020;7.642;2023-12-20T02:37:41;5.93;;;3.00;;
16506;SDS011;8366;51.020;7.642;2023-12-20T02:40:09;6.73;;;3.20;;
16506;SDS011;8366;51.020;7.642;2023-12-20T02:42:36;9.90;;;3.50;;
16506;SDS011;8366;51.020;7.642;2023-12-20T02:45:03;5.10;;;3.40;;
16506;SDS011;8366;51.020;7.642;2023-12-20T02:47:30;9.27;;;4.10;;
16506;SDS011;8366;51.020;7.642;2023-12-20T02:49:56;7.07;;;4.03;;
16506;SDS011;8366;51.020;7.642;2023-12-20T02:52:23;8.83;;;3.70;;
16506;SDS011;8366;51.020;7.642;2023-12-20T02:54:50;8.23;;;4.50;;
16506;SDS011;8366;51.020;7.642;2023-12-20T02:57:17;8.93;;;4.57;;
16506;SDS011;8366;51.020;7.642;2023-12-20T02:59:44;7.80;;;4.60;;
16506;SDS011;8366;51.020;7.642;2023-12-20T03:02:10;6.67;;;4.73;;
16506;SDS011;8366;51.020;7.642;2023-12-20T03:04:37;7.77;;;4.37;;
16506;SDS011;8366;51.020;7.642;2023-12-20T03:07:03;7.90;;;5.07;;
16506;SDS011;8366;51.020;7.642;2023-12-20T03:09:30;12.43;;;5.40;;
16506;SDS011;8366;51.020;7.642;2023-12-20T03:11:56;11.07;;;5.50;;
16506;SDS011;8366;51.020;7.642;2023-12-20T03:14:24;9.53;;;5.40;;
16506;SDS011;8366;51.020;7.642;2023-12-20T03:16:51;7.67;;;5.63;;
16506;SDS011;8366;51.020;7.642;2023-12-20T03:19:17;12.23;;;5.70;;
16506;SDS011;8366;51.020;7.642;2023-12-20T03:21:44;10.07;;;5.87;;
16506;SDS011;8366;51.020;7.642;2023-12-20T03:24:11;12.17;;;5.77;;
16506;SDS011;8366;51.020;7.642;2023-12-20T03:26:37;7.93;;;4.97;;
16506;SDS011;8366;51.020;7.642;2023-12-20T03:29:04;7.27;;;4.90;;
16506;SDS011;8366;51.020;7.642;2023-12-20T03:31:31;11.17;;;4.60;;
16506;SDS011;8366;51.020;7.642;2023-12-20T03:33:58;8.97;;;3.80;;
16506;SDS011;8366;51.020;7.642;2023-12-20T03:36:25;8.23;;;3.50;;
16506;SDS011;8366;51.020;7.642;2023-12-20T03:38:51;7.77;;;4.00;;
16506;SDS011;8366;51.020;7.642;2023-12-20T03:41:17;10.50;;;4.40;;
16506;SDS011;8366;51.020;7.642;2023-12-20T03:43:44;7.20;;;4.23;;
16506;SDS011;8366;51.020;7.642;2023-12-20T03:46:10;9.43;;;4.40;;
16506;SDS011;8366;51.020;7.642;2023-12-20T03:48:38;8.70;;;3.80;;
16506;SDS011;8366;51.020;7.642;2023-12-20T03:51:05;5.73;;;3.87;;
16506;SDS011;8366;51.020;7.642;2023-12-20T03:53:31;8.50;;;3.87;;
16506;SDS011;8366;51.020;7.642;2023-12-20T03:55:57;7.50;;;3.90;;
16506;SDS011;8366;51.020;7.642;2023-12-20T03:58:24;7.03;;;3.93;;
16506;SDS011;8366;51.020;7.642;2023-12-20T04:00:50;9.63;;;3.70;;
16506;SDS011;8366;51.020;7.642;2023-12-20T04:03:17;8.40;;;4.27;;
16506;SDS011;8366;51.020;7.642;2023-12-20T04:05:45;9.03;;;4.10;;
16506;SDS011;8366;51.020;7.642;2023-12-20T04:08:11;12.67;;;5.03;;
16506;SDS011;8366;51.020;7.642;2023-12-20T04:10:38;9.87;;;5.27;;
16506;SDS011;8366;51.020;7.642;2023-12-20T04:13:04;12.70;;;5.13;;
16506;SDS011;8366;51.020;7.642;2023-12-20T04:15:31;13.17;;;5.80;;
16506;SDS011;8366;51.020;7.642;2023-12-20T04:17:57;11.87;;;5.80;;
16506;SDS011;8366;51.020;7.642;2023-12-20T04:20:24;16.23;;;6.37;;
16506;SDS011;8366;51.020;7.642;2023-12-20T04:22:51;16.67;;;6.30;;
16506;SDS011;8366;51.020;7.642;2023-12-20T04:25:18;12.30;;;6.50;;
16506;SDS011;8366;51.020;7.642;2023-12-20T04:27:45;10.63;;;5.90;;
16506;SDS011;8366;51.020;7.642;2023-12-20T04:30:11;13.10;;;5.80;;
16506;SDS011;8366;51.020;7.642;2023-12-20T04:32:38;14.23;;;5.30;;
16506;SDS011;8366;51.020;7.642;2023-12-20T04:35:05;12.67;;;5.00;;
16506;SDS011;8366;51.020;7.642;2023-12-20T04:37:32;8.73;;;3.73;;
16506;SDS011;8366;51.020;7.642;2023-12-20T04:40:00;11.10;;;4.53;;
16506;SDS011;8366;51.020;7.642;2023-12-20T04:42:26;9.50;;;4.70;;
16506;SDS011;8366;51.020;7.642;2023-12-20T04:44:53;14.43;;;4.70;;
16506;SDS011;8366;51.020;7.642;2023-12-20T04:47:19;11.00;;;5.00;;
16506;SDS011;8366;51.020;7.642;2023-12-20T04:49:46;10.53;;;4.07;;
16506;SDS011;8366;51.020;7.642;2023-12-20T04:52:13;14.17;;;4.30;;
16506;SDS011;8366;51.020;7.642;2023-12-20T04:54:40;10.10;;;4.60;;
16506;SDS011;8366;51.020;7.642;2023-12-20T04:57:08;13.13;;;4.30;;
16506;SDS011;8366;51.020;7.642;2023-12-20T04:59:34;12.80;;;4.30;;
16506;SDS011;8366;51.020;7.642;2023-12-20T05:02:01;10.60;;;4.00;;
16506;SDS011;8366;51.020;7.642;2023-12-20T05:04:27;7.50;;;3.67;;
16506;SDS011;8366;51.020;7.642;2023-12-20T05:06:54;10.97;;;3.60;;
16506;SDS011;8366;51.020;7.642;2023-12-20T05:09:20;12.97;;;4.60;;
16506;SDS011;8366;51.020;7.642;2023-12-20T05:11:47;10.70;;;4.13;;
16506;SDS011;8366;51.020;7.642;2023-12-20T05:14:14;12.07;;;4.10;;
16506;SDS011;8366;51.020;7.642;2023-12-20T05:16:42;14.07;;;4.40;;
16506;SDS011;8366;51.020;7.642;2023-12-20T05:19:08;13.17;;;4.70;;
16506;SDS011;8366;51.020;7.642;2023-12-20T05:21:35;14.80;;;4.60;;
16506;SDS011;8366;51.020;7.642;2023-12-20T05:24:01;9.57;;;3.97;;
16506;SDS011;8366;51.020;7.642;2023-12-20T05:26:28;10.20;;;4.23;;
16506;SDS011;8366;51.020;7.642;2023-12-20T05:28:55;13.80;;;4.00;;
16506;SDS011;8366;51.020;7.642;2023-12-20T05:31:23;11.80;;;4.10;;
16506;SDS011;8366;51.020;7.642;2023-12-20T05:33:49;16.60;;;4.30;;
16506;SDS011;8366;51.020;7.642;2023-12-20T05:36:16;15.70;;;4.43;;
16506;SDS011;8366;51.020;7.642;2023-12-20T05:38:42;12.73;;;4.00;;
16506;SDS011;8366;51.020;7.642;2023-12-20T05:41:09;10.03;;;4.30;;
16506;SDS011;8366;51.020;7.642;2023-12-20T05:43:35;7.73;;;4.07;;
16506;SDS011;8366;51.020;7.642;2023-12-20T05:46:02;11.40;;;3.83;;
16506;SDS011;8366;51.020;7.642;2023-12-20T05:48:30;8.50;;;3.73;;
16506;SDS011;8366;51.020;7.642;2023-12-20T05:50:57;7.90;;;3.27;;
16506;SDS011;8366;51.020;7.642;2023-12-20T05:53:23;8.33;;;3.77;;
16506;SDS011;8366;51.020;7.642;2023-12-20T05:55:50;10.47;;;3.83;;
16506;SDS011;8366;51.020;7.642;2023-12-20T05:58:16;9.83;;;4.90;;
16506;SDS011;8366;51.020;7.642;2023-12-20T06:00:43;14.20;;;4.40;;
16506;SDS011;8366;51.020;7.642;2023-12-20T06:03:09;12.13;;;4.17;;
16506;SDS011;8366;51.020;7.642;2023-12-20T06:05:37;11.37;;;3.83;;
16506;SDS011;8366;51.020;7.642;2023-12-20T06:08:04;14.63;;;4.40;;
16506;SDS011;8366;51.020;7.642;2023-12-20T06:10:31;9.57;;;4.00;;
16506;SDS011;8366;51.020;7.642;2023-12-20T06:12:58;14.97;;;4.17;;
16506;SDS011;8366;51.020;7.642;2023-12-20T06:15:25;12.90;;;3.97;;
16506;SDS011;8366;51.020;7.642;2023-12-20T06:17:52;16.77;;;4.90;;
16506;SDS011;8366;51.020;7.642;2023-12-20T06:20:18;10.33;;;4.17;;
16506;SDS011;8366;51.020;7.642;2023-12-20T06:22:46;12.73;;;4.57;;
16506;SDS011;8366;51.020;7.642;2023-12-20T06:25:13;12.50;;;4.07;;
16506;SDS011;8366;51.020;7.642;2023-12-20T06:27:39;17.37;;;4.60;;
16506;SDS011;8366;51.020;7.642;2023-12-20T06:30:06;13.63;;;4.80;;
16506;SDS011;8366;51.020;7.642;2023-12-20T06:32:34;8.33;;;4.40;;
16506;SDS011;8366;51.020;7.642;2023-12-20T06:35:00;9.43;;;4.43;;
16506;SDS011;8366;51.020;7.642;2023-12-20T06:37:27;10.70;;;3.70;;
16506;SDS011;8366;51.020;7.642;2023-12-20T06:39:55;11.43;;;4.40;;
16506;SDS011;8366;51.020;7.642;2023-12-20T06:42:22;12.07;;;4.30;;
16506;SDS011;8366;51.020;7.642;2023-12-20T06:44:48;11.20;;;4.13;;
16506;SDS011;8366;51.020;7.642;2023-12-20T06:47:15;18.13;;;4.40;;
16506;SDS011;8366;51.020;7.642;2023-12-20T06:49:41;14.47;;;4.93;;
16506;SDS011;8366;51.020;7.642;2023-12-20T06:52:08;9.67;;;3.87;;
16506;SDS011;8366;51.020;7.642;2023-12-20T06:54:35;10.37;;;4.90;;
16506;SDS011;8366;51.020;7.642;2023-12-20T06:57:03;11.33;;;4.50;;
16506;SDS011;8366;51.020;7.642;2023-12-20T06:59:30;13.77;;;5.37;;
16506;SDS011;8366;51.020;7.642;2023-12-20T07:01:56;11.93;;;4.80;;
16506;SDS011;8366;51.020;7.642;2023-12-20T07:04:23;16.13;;;5.00;;
16506;SDS011;8366;51.020;7.642;2023-12-20T07:06:49;15.93;;;5.33;;
16506;SDS011;8366;51.020;7.642;2023-12-20T07:09:17;17.03;;;5.80;;
16506;SDS011;8366;51.020;7.642;2023-12-20T07:11:43;16.20;;;6.10;;
16506;SDS011;8366;51.020;7.642;2023-12-20T07:14:11;13.90;;;5.30;;
16506;SDS011;8366;51.020;7.642;2023-12-20T07:16:38;15.03;;;5.57;;
16506;SDS011;8366;51.020;7.642;2023-12-20T07:19:05;15.40;;;5.90;;
16506;SDS011;8366;51.020;7.642;2023-12-20T07:21:32;11.97;;;5.60;;
16506;SDS011;8366;51.020;7.642;2023-12-20T07:23:58;12.07;;;5.40;;
16506;SDS011;8366;51.020;7.642;2023-12-20T07:26:25;16.07;;;6.13;;
16506;SDS011;8366;51.020;7.642;2023-12-20T07:28:51;17.67;;;4.87;;
16506;SDS011;8366;51.020;7.642;2023-12-20T07:31:19;12.20;;;5.17;;
16506;SDS011;8366;51.020;7.642;2023-12-20T07:33:46;17.77;;;6.03;;
16506;SDS011;8366;51.020;7.642;2023-12-20T07:36:12;17.10;;;6.40;;
16506;SDS011;8366;51.020;7.642;2023-12-20T07:38:39;14.57;;;5.93;;
16506;SDS011;8366;51.020;7.642;2023-12-20T07:41:08;15.40;;;5.90;;
16506;SDS011;8366;51.020;7.642;2023-12-20T07:43:35;12.27;;;5.10;;
16506;SDS011;8366;51.020;7.642;2023-12-20T07:46:05;18.23;;;6.30;;
16506;SDS011;8366;51.020;7.642;2023-12-20T07:48:37;14.87;;;5.50;;
16506;SDS011;8366;51.020;7.642;2023-12-20T07:51:04;14.13;;;5.57;;
16506;SDS011;8366;51.020;7.642;2023-12-20T07:53:32;17.43;;;5.60;;
16506;SDS011;8366;51.020;7.642;2023-12-20T07:55:59;11.90;;;5.20;;
16506;SDS011;8366;51.020;7.642;2023-12-20T07:58:25;11.90;;;5.13;;
16506;SDS011;8366;51.020;7.642;2023-12-20T08:00:52;16.50;;;5.43;;
16506;SDS011;8366;51.020;7.642;2023-12-20T08:03:19;15.23;;;5.20;;
16506;SDS011;8366;51.020;7.642;2023-12-20T08:05:47;15.50;;;5.10;;
16506;SDS011;8366;51.020;7.642;2023-12-20T08:08:14;10.67;;;3.97;;
16506;SDS011;8366;51.020;7.642;2023-12-20T08:10:40;13.63;;;5.00;;
16506;SDS011;8366;51.020;7.642;2023-12-20T08:13:07;13.53;;;4.60;;
16506;SDS011;8366;51.020;7.642;2023-12-20T08:15:34;14.80;;;4.43;;
16506;SDS011;8366;51.020;7.642;2023-12-20T08:18:00;11.57;;;4.43;;
16506;SDS011;8366;51.020;7.642;2023-12-20T08:20:27;14.57;;;4.10;;
16506;SDS011;8366;51.020;7.642;2023-12-20T08:22:54;9.43;;;4.10;;
16506;SDS011;8366;51.020;7.642;2023-12-20T08:25:21;14.27;;;5.13;;
16506;SDS011;8366;51.020;7.642;2023-12-20T08:27:47;9.70;;;3.93;;
16506;SDS011;8366;51.020;7.642;2023-12-20T08:30:14;15.20;;;4.73;;
16506;SDS011;8366;51.020;7.642;2023-12-20T08:32:42;14.37;;;4.53;;
16506;SDS011;8366;51.020;7.642;2023-12-20T08:35:08;11.90;;;4.53;;
16506;SDS011;8366;51.020;7.642;2023-12-20T08:37:35;11.60;;;3.93;;
16506;SDS011;8366;51.020;7.642;2023-12-20T08:40:03;15.00;;;4.73;;
16506;SDS011;8366;51.020;7.642;2023-12-20T08:42:31;17.40;;;4.80;;
16506;SDS011;8366;51.020;7.642;2023-12-20T08:44:58;10.77;;;4.13;;
16506;SDS011;8366;51.020;7.642;2023-12-20T08:47:24;10.23;;;4.30;;
16506;SDS011;8366;51.020;7.642;2023-12-20T08:49:51;10.87;;;4.70;;
16506;SDS011;8366;51.020;7.642;2023-12-20T08:52:21;14.47;;;4.50;;
16506;SDS011;8366;51.020;7.642;2023-12-20T08:54:49;12.97;;;4.40;;
16506;SDS011;8366;51.020;7.642;2023-12-20T08:57:18;12.83;;;4.70;;
16506;SDS011;8366;51.020;7.642;2023-12-20T08:59:48;13.20;;;4.83;;
16506;SDS011;8366;51.020;7.642;2023-12-20T09:02:16;12.73;;;4.43;;
16506;SDS011;8366;51.020;7.642;2023-12-20T09:04:43;15.77;;;4.13;;
16506;SDS011;8366;51.020;7.642;2023-12-20T09:07:20;9.87;;;3.77;;
16506;SDS011;8366;51.020;7.642;2023-12-20T09:09:47;12.37;;;4.07;;
16506;SDS011;8366;51.020;7.642;2023-12-20T09:12:13;11.17;;;4.10;;
16506;SDS011;8366;51.020;7.642;2023-12-20T09:14:42;11.40;;;4.53;;
16506;SDS011;8366;51.020;7.642;2023-12-20T09:17:09;14.63;;;4.37;;
16506;SDS011;8366;51.020;7.642;2023-12-20T09:19:37;11.27;;;4.60;;
16506;SDS011;8366;51.020;7.642;2023-12-20T09:22:03;16.87;;;4.90;;
16506;SDS011;8366;51.020;7.642;2023-12-20T09:24:30;15.70;;;5.13;;
16506;SDS011;8366;51.020;7.642;2023-12-20T09:26:57;11.50;;;5.27;;
16506;SDS011;8366;51.020;7.642;2023-12-20T09:29:23;15.60;;;5.90;;
16506;SDS011;8366;51.020;7.642;2023-12-20T09:31:52;15.60;;;5.50;;
16506;SDS011;8366;51.020;7.642;2023-12-20T09:34:19;12.67;;;4.47;;
16506;SDS011;8366;51.020;7.642;2023-12-20T09:36:47;15.13;;;5.40;;
16506;SDS011;8366;51.020;7.642;2023-12-20T09:39:14;14.47;;;4.87;;
16506;SDS011;8366;51.020;7.642;2023-12-20T09:41:43;12.17;;;3.87;;
16506;SDS011;8366;51.020;7.642;2023-12-20T09:44:12;8.80;;;4.00;;
16506;SDS011;8366;51.020;7.642;2023-12-20T09:46:43;11.30;;;4.53;;
16506;SDS011;8366;51.020;7.642;2023-12-20T09:49:12;14.00;;;4.60;;
16506;SDS011;8366;51.020;7.642;2023-12-20T09:51:39;13.77;;;5.10;;
16506;SDS011;8366;51.020;7.642;2023-12-20T09:54:07;10.60;;;4.57;;
16506;SDS011;8366;51.020;7.642;2023-12-20T09:56:33;14.17;;;5.07;;
16506;SDS011;8366;51.020;7.642;2023-12-20T09:59:00;13.17;;;4.10;;
16506;SDS011;8366;51.020;7.642;2023-12-20T10:01:27;8.83;;;4.03;;
16506;SDS011;8366;51.020;7.642;2023-12-20T10:03:55;10.60;;;4.20;;
16506;SDS011;8366;51.020;7.642;2023-12-20T10:06:26;16.20;;;4.50;;
16506;SDS011;8366;51.020;7.642;2023-12-20T10:08:53;12.23;;;3.97;;
16506;SDS011;8366;51.020;7.642;2023-12-20T10:11:19;11.20;;;5.10;;
16506;SDS011;8366;51.020;7.642;2023-12-20T10:13:47;8.87;;;3.97;;
16506;SDS011;8366;51.020;7.642;2023-12-20T10:16:14;12.60;;;4.47;;
16506;SDS011;8366;51.020;7.642;2023-12-20T10:18:40;11.70;;;4.70;;
16506;SDS011;8366;51.020;7.642;2023-12-20T10:21:07;12.23;;;4.40;;
16506;SDS011;8366;51.020;7.642;2023-12-20T10:23:36;15.87;;;5.13;;
16506;SDS011;8366;51.020;7.642;2023-12-20T10:26:04;10.83;;;5.27;;
16506;SDS011;8366;51.020;7.642;2023-12-20T10:28:32;11.60;;;3.70;;
16506;SDS011;8366;51.020;7.642;2023-12-20T10:30:59;10.83;;;4.30;;
16506;SDS011;8366;51.020;7.642;2023-12-20T10:33:27;11.27;;;4.27;;
16506;SDS011;8366;51.020;7.642;2023-12-20T10:35:55;10.93;;;4.03;;
16506;SDS011;8366;51.020;7.642;2023-12-20T10:38:22;7.00;;;3.53;;
16506;SDS011;8366;51.020;7.642;2023-12-20T10:40:50;12.97;;;4.40;;
16506;SDS011;8366;51.020;7.642;2023-12-20T10:43:25;10.93;;;4.10;;
16506;SDS011;8366;51.020;7.642;2023-12-20T10:45:52;11.13;;;4.10;;
16506;SDS011;8366;51.020;7.642;2023-12-20T10:48:19;14.77;;;4.37;;
16506;SDS011;8366;51.020;7.642;2023-12-20T10:50:47;18.03;;;4.80;;
16506;SDS011;8366;51.020;7.642;2023-12-20T10:53:13;11.60;;;4.27;;
16506;SDS011;8366;51.020;7.642;2023-12-20T10:55:41;12.87;;;4.00;;
16506;SDS011;8366;51.020;7.642;2023-12-20T10:58:11;10.97;;;4.10;;
16506;SDS011;8366;51.020;7.642;2023-12-20T11:00:39;8.73;;;4.10;;
16506;SDS011;8366;51.020;7.642;2023-12-20T11:03:06;10.17;;;3.40;;
16506;SDS011;8366;51.020;7.642;2023-12-20T11:05:36;13.77;;;3.97;;
16506;SDS011;8366;51.020;7.642;2023-12-20T11:08:07;12.07;;;3.73;;
16506;SDS011;8366;51.020;7.642;2023-12-20T11:10:37;12.30;;;4.00;;
16506;SDS011;8366;51.020;7.642;2023-12-20T11:13:08;11.93;;;3.60;;
16506;SDS011;8366;51.020;7.642;2023-12-20T11:15:39;11.07;;;3.87;;
16506;SDS011;8366;51.020;7.642;2023-12-20T11:18:06;14.33;;;4.20;;
16506;SDS011;8366;51.020;7.642;2023-12-20T11:20:35;11.33;;;3.57;;
16506;SDS011;8366;51.020;7.642;2023-12-20T11:23:03;12.00;;;3.80;;
16506;SDS011;8366;51.020;7.642;2023-12-20T11:25:29;12.37;;;3.57;;
16506;SDS011;8366;51.020;7.642;2023-12-20T11:28:08;10.03;;;3.73;;
16506;SDS011;8366;51.020;7.642;2023-12-20T11:30:47;12.10;;;3.70;;
16506;SDS011;8366;51.020;7.642;2023-12-20T11:33:16;9.33;;;3.70;;
16506;SDS011;8366;51.020;7.642;2023-12-20T11:35:43;7.40;;;2.93;;
16506;SDS011;8366;51.020;7.642;2023-12-20T11:38:12;12.00;;;4.07;;
16506;SDS011;8366;51.020;7.642;2023-12-20T11:40:40;9.53;;;3.43;;
16506;SDS011;8366;51.020;7.642;2023-12-20T11:43:07;10.67;;;3.57;;
16506;SDS011;8366;51.020;7.642;2023-12-20T11:45:34;9.93;;;3.57;;
16506;SDS011;8366;51.020;7.642;2023-12-20T11:48:02;12.53;;;4.43;;
16506;SDS011;8366;51.020;7.642;2023-12-20T11:50:29;12.77;;;4.30;;
16506;SDS011;8366;51.020;7.642;2023-12-20T11:52:55;15.93;;;4.10;;
16506;SDS011;8366;51.020;7.642;2023-12-20T11:55:22;10.43;;;3.77;;
16506;SDS011;8366;51.020;7.642;2023-12-20T11:57:49;13.97;;;4.47;;
16506;SDS011;8366;51.020;7.642;2023-12-20T12:00:17;12.73;;;4.50;;
16506;SDS011;8366;51.020;7.642;2023-12-20T12:02:54;15.13;;;3.83;;
16506;SDS011;8366;51.020;7.642;2023-12-20T12:05:22;10.23;;;3.83;;
16506;SDS011;8366;51.020;7.642;2023-12-20T12:07:49;10.87;;;4.03;;
16506;SDS011;8366;51.020;7.642;2023-12-20T12:10:16;10.57;;;3.93;;
16506;SDS011;8366;51.020;7.642;2023-12-20T12:12:42;9.63;;;3.70;;
16506;SDS011;8366;51.020;7.642;2023-12-20T12:15:09;8.93;;;3.77;;
16506;SDS011;8366;51.020;7.642;2023-12-20T12:17:36;16.07;;;4.47;;
16506;SDS011;8366;51.020;7.642;2023-12-20T12:20:04;14.90;;;4.30;;
16506;SDS011;8366;51.020;7.642;2023-12-20T12:22:32;10.77;;;4.00;;
16506;SDS011;8366;51.020;7.642;2023-12-20T12:24:59;13.03;;;4.13;;
16506;SDS011;8366;51.020;7.642;2023-12-20T12:27:32;9.20;;;3.53;;
16506;SDS011;8366;51.020;7.642;2023-12-20T12:30:02;13.70;;;4.03;;
16506;SDS011;8366;51.020;7.642;2023-12-20T12:32:29;6.13;;;3.17;;
16506;SDS011;8366;51.020;7.642;2023-12-20T12:34:57;8.47;;;3.57;;
16506;SDS011;8366;51.020;7.642;2023-12-20T12:37:23;7.90;;;3.80;;
16506;SDS011;8366;51.020;7.642;2023-12-20T12:39:54;9.60;;;4.00;;
16506;SDS011;8366;51.020;7.642;2023-12-20T12:42:21;10.40;;;3.60;;
16506;SDS011;8366;51.020;7.642;2023-12-20T12:44:50;10.63;;;3.63;;
16506;SDS011;8366;51.020;7.642;2023-12-20T12:47:17;12.63;;;3.80;;
16506;SDS011;8366;51.020;7.642;2023-12-20T12:49:43;10.47;;;4.10;;
16506;SDS011;8366;51.020;7.642;2023-12-20T12:52:10;6.97;;;3.10;;
16506;SDS011;8366;51.020;7.642;2023-12-20T12:54:36;7.63;;;3.40;;
16506;SDS011;8366;51.020;7.642;2023-12-20T12:57:04;8.67;;;3.70;;
16506;SDS011;8366;51.020;7.642;2023-12-20T12:59:31;7.87;;;3.37;;
16506;SDS011;8366;51.020;7.642;2023-12-20T13:01:57;8.13;;;3.73;;
16506;SDS011;8366;51.020;7.642;2023-12-20T13:04:24;9.13;;;3.53;;
16506;SDS011;8366;51.020;7.642;2023-12-20T13:06:50;8.83;;;3.20;;
16506;SDS011;8366;51.020;7.642;2023-12-20T13:09:17;9.80;;;3.37;;
16506;SDS011;8366;51.020;7.642;2023-12-20T13:11:44;8.60;;;3.77;;
16506;SDS011;8366;51.020;7.642;2023-12-20T13:14:12;7.83;;;3.20;;
16506;SDS011;8366;51.020;7.642;2023-12-20T13:16:40;8.70;;;3.73;;
16506;SDS011;8366;51.020;7.642;2023-12-20T13:19:07;8.07;;;4.10;;
16506;SDS011;8366;51.020;7.642;2023-12-20T13:21:35;10.83;;;4.20;;
16506;SDS011;8366;51.020;7.642;2023-12-20T13:24:01;13.83;;;3.80;;
16506;SDS011;8366;51.020;7.642;2023-12-20T13:26:28;9.57;;;4.43;;
16506;SDS011;8366;51.020;7.642;2023-12-20T13:28:55;10.20;;;3.73;;
16506;SDS011;8366;51.020;7.642;2023-12-20T13:31:22;9.60;;;4.13;;
16506;SDS011;8366;51.020;7.642;2023-12-20T13:33:49;8.70;;;4.53;;
16506;SDS011;8366;51.020;7.642;2023-12-20T13:36:17;10.17;;;4.43;;
16506;SDS011;8366;51.020;7.642;2023-12-20T13:38:44;11.57;;;5.20;;
16506;SDS011;8366;51.020;7.642;2023-12-20T13:41:10;11.90;;;3.67;;
16506;SDS011;8366;51.020;7.642;2023-12-20T13:43:37;11.80;;;4.33;;
16506;SDS011;8366;51.020;7.642;2023-12-20T13:46:04;9.87;;;4.33;;
16506;SDS011;8366;51.020;7.642;2023-12-20T13:48:32;11.73;;;4.20;;
16506;SDS011;8366;51.020;7.642;2023-12-20T13:50:58;9.43;;;4.00;;
16506;SDS011;8366;51.020;7.642;2023-12-20T13:53:25;10.77;;;4.40;;
16506;SDS011;8366;51.020;7.642;2023-12-20T13:55:52;10.83;;;4.80;;
16506;SDS011;8366;51.020;7.642;2023-12-20T13:58:18;10.17;;;4.43;;
16506;SDS011;8366;51.020;7.642;2023-12-20T14:00:46;11.03;;;4.60;;
16506;SDS011;8366;51.020;7.642;2023-12-20T14:03:13;10.73;;;4.50;;
16506;SDS011;8366;51.020;7.642;2023-12-20T14:05:42;13.50;;;5.47;;
16506;SDS011;8366;51.020;7.642;2023-12-20T14:08:09;11.17;;;4.30;;
16506;SDS011;8366;51.020;7.642;2023-12-20T14:10:37;11.93;;;5.20;;
16506;SDS011;8366;51.020;7.642;2023-12-20T14:13:04;9.40;;;4.97;;
16506;SDS011;8366;51.020;7.642;2023-12-20T14:15:31;10.40;;;4.50;;
16506;SDS011;8366;51.020;7.642;2023-12-20T14:18:02;9.73;;;3.97;;
16506;SDS011;8366;51.020;7.642;2023-12-20T14:20:30;9.17;;;3.90;;
16506;SDS011;8366;51.020;7.642;2023-12-20T14:22:57;9.40;;;4.37;;
16506;SDS011;8366;51.020;7.642;2023-12-20T14:25:24;14.33;;;5.30;;
16506;SDS011;8366;51.020;7.642;2023-12-20T14:27:51;10.53;;;5.10;;
16506;SDS011;8366;51.020;7.642;2023-12-20T14:30:17;9.80;;;4.73;;
16506;SDS011;8366;51.020;7.642;2023-12-20T14:32:44;8.83;;;5.13;;
16506;SDS011;8366;51.020;7.642;2023-12-20T14:35:11;10.77;;;4.93;;
16506;SDS011;8366;51.020;7.642;2023-12-20T14:37:40;8.77;;;4.83;;
16506;SDS011;8366;51.020;7.642;2023-12-20T14:40:10;9.67;;;4.77;;
16506;SDS011;8366;51.020;7.642;2023-12-20T14:42:41;8.70;;;4.43;;
16506;SDS011;8366;51.020;7.642;2023-12-20T14:45:08;12.27;;;4.80;;
16506;SDS011;8366;51.020;7.642;2023-12-20T14:47:36;10.20;;;4.70;;
16506;SDS011;8366;51.020;7.642;2023-12-20T14:50:03;11.37;;;5.47;;
16506;SDS011;8366;51.020;7.642;2023-12-20T14:52:30;8.37;;;4.13;;